createdAt,value
2018-05-11T00:03:45.060Z,18.85
2018-05-11T00:08:36.090Z,18.84
2018-05-11T00:13:27.104Z,18.78
2018-05-11T00:18:18.861Z,18.64
2018-05-11T00:23:09.888Z,18.52
2018-05-11T00:28:00.909Z,18.41
2018-05-11T00:32:51.927Z,18.38
2018-05-11T00:37:42.933Z,18.37
2018-05-11T00:42:34.776Z,18.21
2018-05-11T00:47:26.527Z,18.24
2018-05-11T00:52:17.543Z,18.16
2018-05-11T00:57:08.580Z,18.12
2018-05-11T01:01:59.639Z,18.04
2018-05-11T01:06:50.668Z,17.95
2018-05-11T01:11:41.687Z,17.84
2018-05-11T01:16:32.701Z,17.77
2018-05-11T01:21:23.727Z,17.77
2018-05-11T01:26:14.740Z,17.77
2018-05-11T01:31:05.768Z,17.68
2018-05-11T01:35:56.805Z,17.60
2018-05-11T01:40:47.843Z,17.49
2018-05-11T01:45:38.919Z,17.54
2018-05-11T01:50:29.955Z,17.52
2018-05-11T01:55:20.971Z,17.50
2018-05-11T02:00:11.957Z,17.56
2018-05-11T02:05:03.704Z,17.51
2018-05-11T02:09:54.747Z,17.52
2018-05-11T02:14:52.651Z,17.47
2018-05-11T02:19:43.728Z,17.35
2018-05-11T02:24:35.492Z,17.28
2018-05-11T02:29:26.539Z,17.28
2018-05-11T02:34:17.576Z,17.31
2018-05-11T02:39:08.610Z,17.11
2018-05-11T02:43:59.680Z,17.04
2018-05-11T02:48:50.711Z,17.01
2018-05-11T02:53:41.723Z,17.03
2018-05-11T02:58:32.758Z,17.07
2018-05-11T03:03:23.758Z,17.10
2018-05-11T03:08:15.552Z,17.15
2018-05-11T03:13:06.563Z,17.06
2018-05-11T03:17:57.587Z,16.92
2018-05-11T03:22:48.601Z,16.90
2018-05-11T03:27:39.625Z,16.80
2018-05-11T03:32:30.669Z,16.79
2018-05-11T03:37:21.700Z,16.82
2018-05-11T03:42:12.740Z,16.77
2018-05-11T03:47:03.781Z,16.69
2018-05-11T03:51:55.564Z,16.60
2018-05-11T03:56:46.609Z,16.57
2018-05-11T04:01:56.383Z,16.50
2018-05-11T04:07:06.265Z,16.47
2018-05-11T04:11:58.066Z,16.49
2018-05-11T04:16:49.075Z,16.54
2018-05-11T04:21:40.103Z,16.53
2018-05-11T04:26:31.152Z,16.49
2018-05-11T04:31:22.165Z,16.47
2018-05-11T04:36:13.182Z,16.48
2018-05-11T04:41:04.219Z,16.47
2018-05-11T04:45:55.241Z,16.48
2018-05-11T04:50:46.256Z,16.51
2018-05-11T04:55:37.283Z,16.47
2018-05-11T05:00:28.312Z,16.38
2018-05-11T05:05:19.396Z,16.32
2018-05-11T05:10:10.429Z,16.30
2018-05-11T05:15:01.461Z,16.27
2018-05-11T05:19:52.468Z,16.29
2018-05-11T05:24:43.474Z,16.34
2018-05-11T05:29:34.548Z,16.15
2018-05-11T05:34:25.605Z,16.11
2018-05-11T05:39:17.482Z,16.12
2018-05-11T05:44:09.219Z,16.19
2018-05-11T05:49:00.278Z,16.25
2018-05-11T05:53:51.307Z,16.30
2018-05-11T05:58:42.318Z,16.37
2018-05-11T06:03:34.123Z,16.39
2018-05-11T06:08:25.196Z,16.35
2018-05-11T06:13:16.216Z,16.38
2018-05-11T06:18:07.228Z,16.30
2018-05-11T06:22:58.227Z,16.16
2018-05-11T06:27:49.251Z,16.19
2018-05-11T06:32:40.289Z,16.25
2018-05-11T06:37:31.338Z,16.27
2018-05-11T06:42:22.451Z,16.28
2018-05-11T06:47:13.468Z,16.24
2018-05-11T06:52:05.348Z,16.33
2018-05-11T06:56:57.103Z,16.41
2018-05-11T07:01:48.147Z,16.38
2018-05-11T07:06:39.196Z,16.34
2018-05-11T07:11:30.241Z,16.40
2018-05-11T07:16:21.249Z,16.42
2018-05-11T07:21:13.767Z,16.46
2018-05-11T07:26:05.553Z,16.51
2018-05-11T07:30:56.601Z,16.51
2018-05-11T07:35:48.397Z,16.48
2018-05-11T07:40:39.544Z,16.52
2018-05-11T07:45:30.553Z,16.56
2018-05-11T07:50:21.578Z,16.53
2018-05-11T07:55:12.607Z,16.55
2018-05-11T08:00:03.706Z,16.59
2018-05-11T08:04:54.747Z,16.59
2018-05-11T08:09:45.789Z,16.68
2018-05-11T08:14:36.816Z,16.74
2018-05-11T08:19:28.602Z,16.91
2018-05-11T08:24:19.671Z,17.01
2018-05-11T08:29:10.730Z,17.11
2018-05-11T08:34:01.743Z,17.16
2018-05-11T08:38:53.533Z,17.15
2018-05-11T08:43:44.626Z,17.11
2018-05-11T08:48:35.778Z,17.13
2018-05-11T08:53:26.800Z,17.18
2018-05-11T08:58:17.837Z,17.22
2018-05-11T09:03:08.891Z,17.35
2018-05-11T09:08:00.660Z,17.45
2018-05-11T09:12:51.682Z,17.46
2018-05-11T09:17:42.698Z,17.50
2018-05-11T09:22:33.741Z,17.49
2018-05-11T09:27:24.779Z,17.46
2018-05-11T09:32:15.817Z,17.39
2018-05-11T09:37:06.904Z,17.34
2018-05-11T09:41:57.941Z,17.41
2018-05-11T09:46:49.002Z,17.42
2018-05-11T09:51:40.043Z,17.49
2018-05-11T09:56:31.826Z,17.64
2018-05-11T10:01:22.858Z,17.96
2018-05-11T10:06:13.868Z,18.15
2018-05-11T10:11:04.909Z,18.28
2018-05-11T10:15:55.932Z,18.37
2018-05-11T10:20:47.158Z,18.51
2018-05-11T10:25:38.094Z,18.61
2018-05-11T10:30:29.142Z,18.75
2018-05-11T10:35:20.893Z,18.73
2018-05-11T10:40:12.647Z,18.51
2018-05-11T10:45:03.664Z,18.42
2018-05-11T10:49:54.757Z,18.44
2018-05-11T10:54:45.797Z,18.42
2018-05-11T10:59:37.609Z,18.36
2018-05-11T11:04:28.687Z,18.33
2018-05-11T11:09:19.732Z,18.27
2018-05-11T11:14:10.743Z,18.32
2018-05-11T11:19:08.647Z,18.26
2018-05-11T11:23:59.763Z,18.22
2018-05-11T11:28:50.795Z,18.26
2018-05-11T11:33:41.867Z,18.28
2018-05-11T11:38:33.620Z,18.36
2018-05-11T11:43:24.756Z,18.39
2018-05-11T11:48:15.788Z,18.39
2018-05-11T11:53:06.866Z,18.43
2018-05-11T11:57:58.648Z,18.46
2018-05-11T12:02:49.748Z,18.39
2018-05-11T12:07:40.801Z,18.35
2018-05-11T12:12:31.827Z,18.30
2018-05-11T12:17:22.876Z,18.36
2018-05-11T12:22:13.913Z,18.38
2018-05-11T12:27:04.997Z,18.42
2018-05-11T12:31:56.022Z,18.43
2018-05-11T12:36:47.044Z,18.29
2018-05-11T12:41:38.069Z,18.13
2018-05-11T12:46:29.141Z,17.86
2018-05-11T12:51:20.923Z,17.80
2018-05-11T12:56:11.939Z,17.89
2018-05-11T13:01:02.952Z,17.82
2018-05-11T13:05:53.960Z,17.90
2018-05-11T13:10:44.998Z,18.02
2018-05-11T13:15:36.064Z,18.13
2018-05-11T13:20:27.140Z,18.21
2018-05-11T13:25:18.867Z,18.11
2018-05-11T13:30:10.670Z,18.14
2018-05-11T13:35:01.795Z,18.18
2018-05-11T13:39:52.880Z,18.23
2018-05-11T13:44:43.908Z,18.30
2018-05-11T13:49:34.940Z,18.33
2018-05-11T13:54:25.993Z,18.34
2018-05-11T13:59:17.049Z,18.34
2018-05-11T14:04:08.817Z,18.32
2018-05-11T14:08:59.887Z,18.37
2018-05-11T14:13:50.908Z,18.43
2018-05-11T14:18:41.949Z,18.47
2018-05-11T14:23:33.699Z,18.54
2018-05-11T14:28:25.467Z,18.55
2018-05-11T14:33:16.517Z,18.56
2018-05-11T14:38:07.541Z,18.60
2018-05-11T14:42:58.563Z,18.60
2018-05-11T14:47:49.650Z,18.61
2018-05-11T14:52:40.643Z,18.63
2018-05-11T14:57:32.525Z,18.64
2018-05-11T15:02:23.725Z,18.58
2018-05-11T15:07:15.502Z,18.59
2018-05-11T15:12:06.537Z,18.61
2018-05-11T15:16:57.545Z,18.70
2018-05-11T15:21:48.567Z,18.80
2018-05-11T15:26:39.657Z,18.83
2018-05-11T15:31:30.672Z,18.83
2018-05-11T15:36:22.431Z,18.80
2018-05-11T15:41:13.466Z,18.85
2018-05-11T15:46:04.564Z,18.80
2018-05-11T15:51:03.422Z,18.78
2018-05-11T15:55:54.475Z,18.70
2018-05-11T16:00:45.525Z,18.62
2018-05-11T16:05:36.606Z,18.59
2018-05-11T16:10:27.635Z,18.59
2018-05-11T16:15:18.641Z,18.58
2018-05-11T16:20:11.153Z,18.50
2018-05-11T16:25:02.155Z,18.52
2018-05-11T16:29:53.998Z,18.51
2018-05-11T16:34:45.047Z,18.43
2018-05-11T16:39:36.143Z,18.38
2018-05-11T16:44:27.155Z,18.36
2018-05-11T16:49:18.173Z,18.30
2018-05-11T16:54:09.252Z,18.31
2018-05-11T16:59:00.942Z,18.24
2018-05-11T17:03:52.723Z,18.20
2018-05-11T17:08:43.754Z,18.15
2018-05-11T17:13:34.814Z,18.11
2018-05-11T17:18:25.843Z,18.12
2018-05-11T17:23:16.883Z,18.14
2018-05-11T17:28:08.632Z,18.13
2018-05-11T17:33:00.437Z,18.13
2018-05-11T17:37:51.460Z,18.12
2018-05-11T17:42:42.488Z,18.16
2018-05-11T17:47:33.541Z,18.16
2018-05-11T17:52:25.301Z,18.13
2018-05-11T17:57:16.358Z,18.14
2018-05-11T18:02:07.393Z,18.13
2018-05-11T18:06:58.407Z,18.10
2018-05-11T18:11:49.416Z,18.08
2018-05-11T18:16:40.444Z,18.05
2018-05-11T18:21:31.471Z,18.05
2018-05-11T18:26:22.566Z,18.01
2018-05-11T18:31:13.584Z,17.96
2018-05-11T18:36:04.635Z,17.87
2018-05-11T18:40:55.652Z,17.79
2018-05-11T18:45:46.687Z,17.69
2018-05-11T18:50:37.768Z,17.65
2018-05-11T18:55:28.814Z,17.59
2018-05-11T19:00:19.904Z,17.53
2018-05-11T19:05:11.665Z,17.44
2018-05-11T19:10:02.813Z,17.33
2018-05-11T19:14:53.841Z,17.27
2018-05-11T19:19:44.893Z,17.23
2018-05-11T19:24:35.912Z,17.17
2018-05-11T19:29:27.725Z,17.11
2018-05-11T19:34:18.747Z,17.09
2018-05-11T19:39:09.832Z,17.06
2018-05-11T19:44:00.880Z,17.03
2018-05-11T19:48:53.098Z,16.97
2018-05-11T19:53:44.119Z,16.93
2018-05-11T19:58:35.878Z,16.89
2018-05-11T20:03:27.327Z,16.84
2018-05-11T20:08:18.372Z,16.78
2018-05-11T20:13:09.405Z,16.71
2018-05-11T20:18:00.433Z,16.65
2018-05-11T20:22:52.188Z,16.59
2018-05-11T20:27:43.199Z,16.54
2018-05-11T20:32:34.289Z,16.49
2018-05-11T20:37:25.995Z,16.47
2018-05-11T20:42:17.824Z,16.41
2018-05-11T20:47:08.918Z,16.37
2018-05-11T20:52:00.031Z,16.33
2018-05-11T20:56:51.067Z,16.26
2018-05-11T21:01:42.097Z,16.20
2018-05-11T21:06:33.135Z,16.13
2018-05-11T21:11:24.152Z,16.09
2018-05-11T21:16:15.183Z,16.03
2018-05-11T21:21:06.935Z,15.99
2018-05-11T21:25:58.704Z,15.93
2018-05-11T21:30:49.765Z,15.88
2018-05-11T21:35:40.777Z,15.83
2018-05-11T21:40:31.796Z,15.80
2018-05-11T21:45:22.888Z,15.76
2018-05-11T21:50:13.920Z,15.71
2018-05-11T21:55:04.984Z,15.65
2018-05-11T21:59:56.000Z,15.60
2018-05-11T22:04:47.066Z,15.54
2018-05-11T22:09:38.841Z,15.48
2018-05-11T22:14:29.916Z,15.40
2018-05-11T22:19:20.921Z,15.36
2018-05-11T22:29:02.964Z,15.26
2018-05-11T22:33:54.817Z,15.20
2018-05-11T22:38:45.863Z,15.16
2018-05-11T22:43:37.674Z,15.10
2018-05-11T22:48:28.739Z,15.07
2018-05-11T22:53:19.866Z,15.03
2018-05-11T22:58:10.890Z,14.97
2018-05-11T23:03:01.906Z,14.95
2018-05-11T23:07:52.932Z,14.92
2018-05-11T23:12:43.977Z,14.89
2018-05-11T23:17:35.059Z,14.87
2018-05-11T23:22:26.805Z,14.83
2018-05-11T23:27:18.599Z,14.79
2018-05-11T23:32:09.639Z,14.73
2018-05-11T23:37:00.668Z,14.69
2018-05-11T23:41:51.672Z,14.65
2018-05-11T23:46:42.710Z,14.62
2018-05-11T23:51:33.751Z,14.59
2018-05-11T23:56:25.613Z,14.54
